Time;durP1;ratioP1;P1;durP2;ratioP2;P2;SDS_P1;SDS_P2;PMS_P1;PMS_P2;Temp;Humidity;BMP_temperature;BMP_pressure;BME280_temperature;BME280_humidity;BME280_pressure;Samples;Min_cycle;Max_cycle;Signal;HPM_P1;HPM_P2
2021/03/09 00:00:55;;;;;;;13.52;5.57;;;;;;;;;;5113711;28;20055;-76
2021/03/09 00:03:21;;;;;;;12.68;6.18;;;;;;;;;;5113801;28;20061;-77
2021/03/09 00:05:46;;;;;;;12.60;5.57;;;;;;;;;;5113712;28;20077;-78
2021/03/09 00:08:13;;;;;;;11.00;6.00;;;;;;;;;;5113822;28;20036;-77
2021/03/09 00:10:40;;;;;;;9.00;5.03;;;;;;;;;;5095270;28;20035;-77
2021/03/09 00:13:06;;;;;;;11.43;5.57;;;;;;;;;;5113741;28;20489;-78
2021/03/09 00:15:31;;;;;;;8.27;4.60;;;;;;;;;;5095404;28;20078;-77
2021/03/09 00:17:57;;;;;;;9.45;4.63;;;;;;;;;;5113706;28;20043;-77
2021/03/09 00:20:22;;;;;;;9.57;4.15;;;;;;;;;;5115498;28;20039;-77
2021/03/09 00:22:47;;;;;;;7.82;4.30;;;;;;;;;;5115638;28;20031;-77
2021/03/09 00:25:13;;;;;;;10.95;4.82;;;;;;;;;;5133176;27;20421;-77
2021/03/09 00:27:38;;;;;;;6.35;3.47;;;;;;;;;;5115370;28;20035;-77
2021/03/09 00:30:05;;;;;;;8.73;4.25;;;;;;;;;;5134239;28;20028;-77
2021/03/09 00:32:30;;;;;;;7.72;3.83;;;;;;;;;;5115238;28;20495;-77
2021/03/09 00:34:56;;;;;;;7.97;4.40;;;;;;;;;;5133975;27;20039;-77
2021/03/09 00:37:21;;;;;;;9.95;4.55;;;;;;;;;;5133664;28;20201;-77
2021/03/09 00:39:46;;;;;;;8.25;4.80;;;;;;;;;;5134039;28;20117;-77
2021/03/09 00:42:12;;;;;;;11.38;4.80;;;;;;;;;;5133987;28;20030;-77
2021/03/09 00:44:37;;;;;;;8.13;4.50;;;;;;;;;;5115408;28;20079;-77
2021/03/09 00:47:03;;;;;;;7.97;4.28;;;;;;;;;;5133867;28;20092;-77
2021/03/09 00:49:28;;;;;;;8.27;4.78;;;;;;;;;;5133518;28;20134;-77
2021/03/09 00:51:53;;;;;;;12.60;4.45;;;;;;;;;;5115288;28;20662;-77
2021/03/09 00:54:19;;;;;;;10.77;4.95;;;;;;;;;;5115391;28;20046;-77
2021/03/09 00:56:44;;;;;;;11.23;5.35;;;;;;;;;;5137725;27;20098;-78
2021/03/09 00:59:10;;;;;;;9.18;4.45;;;;;;;;;;5137420;27;20404;-77
2021/03/09 01:01:35;;;;;;;15.73;6.20;;;;;;;;;;5137425;27;20469;-77
2021/03/09 01:04:01;;;;;;;10.15;5.22;;;;;;;;;;5137226;27;20469;-77
2021/03/09 01:06:26;;;;;;;10.75;5.15;;;;;;;;;;5137042;27;20035;-77
2021/03/09 01:08:52;;;;;;;9.50;5.03;;;;;;;;;;5137238;27;20038;-77
2021/03/09 01:11:18;;;;;;;10.20;5.22;;;;;;;;;;5137114;27;20031;-77
2021/03/09 01:13:43;;;;;;;9.65;5.05;;;;;;;;;;5118545;27;20015;-77
2021/03/09 01:16:08;;;;;;;10.27;5.03;;;;;;;;;;5136672;27;20115;-77
2021/03/09 01:18:34;;;;;;;9.10;5.18;;;;;;;;;;5136977;27;20027;-77
2021/03/09 01:20:59;;;;;;;11.25;5.97;;;;;;;;;;5136502;27;20503;-77
2021/03/09 01:23:25;;;;;;;12.77;5.43;;;;;;;;;;5137264;27;20039;-77
2021/03/09 01:25:50;;;;;;;14.00;6.30;;;;;;;;;;5136549;27;20034;-79
2021/03/09 01:28:16;;;;;;;14.52;6.07;;;;;;;;;;5116465;28;20408;-77
2021/03/09 01:30:41;;;;;;;8.52;4.88;;;;;;;;;;5116246;28;20465;-77
2021/03/09 01:33:06;;;;;;;10.38;5.55;;;;;;;;;;5116399;28;20039;-77
2021/03/09 01:35:32;;;;;;;6.45;4.57;;;;;;;;;;5116130;28;20040;-77
2021/03/09 01:37:57;;;;;;;8.48;4.78;;;;;;;;;;5116156;28;20031;-76
2021/03/09 01:40:24;;;;;;;7.30;4.75;;;;;;;;;;5114717;28;20035;-77
2021/03/09 01:42:49;;;;;;;9.90;5.28;;;;;;;;;;5115856;28;20052;-77
2021/03/09 01:45:15;;;;;;;11.48;5.97;;;;;;;;;;5116062;28;20470;-77
2021/03/09 01:47:47;;;;;;;10.80;6.22;;;;;;;;;;5097671;28;20043;-77
2021/03/09 01:50:14;;;;;;;12.82;6.43;;;;;;;;;;5115898;28;20611;-77
2021/03/09 01:52:42;;;;;;;8.65;4.50;;;;;;;;;;5115921;28;20027;-77
2021/03/09 01:55:11;;;;;;;14.45;6.10;;;;;;;;;;5115054;28;20044;-77
2021/03/09 01:57:36;;;;;;;10.05;5.45;;;;;;;;;;5115612;28;20236;-77
2021/03/09 02:00:04;;;;;;;15.18;5.13;;;;;;;;;;5115659;28;20477;-77
2021/03/09 02:02:39;;;;;;;9.32;5.38;;;;;;;;;;5115561;28;20098;-77
2021/03/09 02:05:07;;;;;;;9.98;5.45;;;;;;;;;;5115442;28;20032;-77
2021/03/09 02:07:32;;;;;;;14.65;5.68;;;;;;;;;;5114883;28;20040;-77
2021/03/09 02:09:58;;;;;;;14.70;5.70;;;;;;;;;;5115752;28;20435;-77
2021/03/09 02:12:51;;;;;;;13.70;5.45;;;;;;;;;;5097701;28;20412;-77
2021/03/09 02:15:32;;;;;;;13.93;5.25;;;;;;;;;;5097370;28;20088;-77
2021/03/09 02:18:19;;;;;;;9.77;5.65;;;;;;;;;;5097071;28;20043;-77
2021/03/09 02:21:01;;;;;;;11.77;5.97;;;;;;;;;;5115522;28;20124;-77
2021/03/09 02:23:52;;;;;;;10.27;5.38;;;;;;;;;;5115081;27;20043;-77
2021/03/09 02:26:55;;;;;;;8.38;5.03;;;;;;;;;;5114709;28;20039;-77
2021/03/09 02:29:42;;;;;;;11.45;6.55;;;;;;;;;;5115139;28;20479;-77
2021/03/09 02:32:13;;;;;;;12.48;5.63;;;;;;;;;;5115083;28;20032;-78
2021/03/09 02:34:54;;;;;;;14.75;6.00;;;;;;;;;;5115029;28;20035;-78
2021/03/09 02:37:23;;;;;;;13.40;5.80;;;;;;;;;;5128425;27;20031;-78
2021/03/09 02:39:48;;;;;;;14.63;6.32;;;;;;;;;;5134831;27;20035;-78
2021/03/09 02:42:22;;;;;;;16.23;6.38;;;;;;;;;;5135463;27;20449;-78
2021/03/09 02:44:52;;;;;;;12.75;5.65;;;;;;;;;;5135311;27;20047;-79
2021/03/09 02:47:18;;;;;;;10.57;5.65;;;;;;;;;;5135051;27;20046;-78
2021/03/09 02:49:45;;;;;;;13.13;5.70;;;;;;;;;;5116522;27;20027;-77
2021/03/09 02:52:18;;;;;;;14.88;6.70;;;;;;;;;;5135326;27;20042;-77
2021/03/09 02:54:44;;;;;;;14.75;6.75;;;;;;;;;;5135028;27;20035;-77
2021/03/09 02:57:12;;;;;;;10.88;5.53;;;;;;;;;;5135196;27;20035;-77
2021/03/09 02:59:37;;;;;;;15.23;6.72;;;;;;;;;;5134814;27;20042;-77
2021/03/09 03:02:03;;;;;;;11.10;6.18;;;;;;;;;;5135390;27;20039;-78
2021/03/09 03:04:30;;;;;;;10.68;6.43;;;;;;;;;;5134493;27;20035;-77
2021/03/09 03:06:56;;;;;;;12.82;6.07;;;;;;;;;;5134901;27;20050;-77
2021/03/09 03:09:22;;;;;;;8.55;5.22;;;;;;;;;;5134812;27;20084;-77
2021/03/09 03:11:50;;;;;;;12.57;6.80;;;;;;;;;;5134818;27;20066;-78
2021/03/09 03:14:17;;;;;;;13.82;6.05;;;;;;;;;;5135109;27;20039;-76
2021/03/09 03:16:43;;;;;;;11.57;6.35;;;;;;;;;;5135158;27;20034;-76
2021/03/09 03:19:09;;;;;;;12.00;6.15;;;;;;;;;;5135101;27;20023;-78
2021/03/09 03:21:40;;;;;;;13.55;7.03;;;;;;;;;;5135257;27;20130;-78
2021/03/09 03:24:08;;;;;;;16.27;7.20;;;;;;;;;;5135642;27;20035;-78
2021/03/09 03:26:38;;;;;;;11.95;6.70;;;;;;;;;;5119666;27;20031;-77
2021/03/09 03:29:06;;;;;;;11.15;6.13;;;;;;;;;;5114416;28;20039;-76
2021/03/09 03:31:32;;;;;;;16.00;6.95;;;;;;;;;;5114816;28;20036;-77
2021/03/09 03:33:57;;;;;;;12.23;6.47;;;;;;;;;;5114152;28;20027;-78
2021/03/09 03:36:24;;;;;;;14.60;7.18;;;;;;;;;;5114720;28;20118;-77
2021/03/09 03:38:49;;;;;;;12.15;6.75;;;;;;;;;;5114526;28;20024;-78
2021/03/09 03:41:15;;;;;;;11.52;6.28;;;;;;;;;;5095975;28;20477;-77
2021/03/09 03:43:40;;;;;;;12.70;6.97;;;;;;;;;;5096045;28;20043;-77
2021/03/09 03:46:07;;;;;;;13.82;7.03;;;;;;;;;;5095904;28;20060;-78
2021/03/09 03:48:34;;;;;;;18.63;7.32;;;;;;;;;;5115865;27;20039;-78
2021/03/09 03:51:01;;;;;;;16.27;7.53;;;;;;;;;;5117286;28;20035;-78
2021/03/09 03:53:39;;;;;;;13.77;6.72;;;;;;;;;;5134322;27;20035;-76
2021/03/09 03:56:19;;;;;;;11.88;6.95;;;;;;;;;;5134294;27;20530;-76
2021/03/09 03:58:50;;;;;;;15.80;7.55;;;;;;;;;;5134336;27;20042;-76
2021/03/09 04:01:20;;;;;;;13.95;7.07;;;;;;;;;;5134381;28;20532;-77
2021/03/09 04:03:48;;;;;;;13.25;6.88;;;;;;;;;;5134589;28;20460;-77
2021/03/09 04:06:15;;;;;;;15.10;6.88;;;;;;;;;;5134013;27;20039;-77
2021/03/09 04:08:40;;;;;;;14.13;7.35;;;;;;;;;;5134176;28;20054;-77
2021/03/09 04:11:07;;;;;;;15.50;7.35;;;;;;;;;;5134053;28;20031;-77
2021/03/09 04:13:34;;;;;;;12.30;6.53;;;;;;;;;;5134098;28;20042;-77
2021/03/09 04:16:01;;;;;;;12.00;6.80;;;;;;;;;;5134054;27;20027;-77
2021/03/09 04:18:27;;;;;;;11.77;6.40;;;;;;;;;;5133543;28;20202;-77
2021/03/09 04:20:54;;;;;;;11.85;6.82;;;;;;;;;;5134066;28;20031;-77
2021/03/09 04:23:20;;;;;;;16.70;6.82;;;;;;;;;;5134077;28;20084;-77
2021/03/09 04:25:46;;;;;;;14.50;6.45;;;;;;;;;;5133413;28;20038;-77
2021/03/09 04:28:13;;;;;;;14.15;7.38;;;;;;;;;;5134241;28;20035;-77
2021/03/09 04:30:39;;;;;;;16.00;7.20;;;;;;;;;;5137745;27;20114;-77
2021/03/09 04:33:05;;;;;;;11.80;6.65;;;;;;;;;;5138392;27;20039;-77
2021/03/09 04:35:30;;;;;;;10.82;6.15;;;;;;;;;;5119752;27;20381;-77
2021/03/09 04:37:56;;;;;;;9.88;6.00;;;;;;;;;;5138050;27;20043;-77
2021/03/09 04:40:22;;;;;;;15.70;7.03;;;;;;;;;;5137777;27;20036;-76
2021/03/09 04:42:48;;;;;;;10.57;6.53;;;;;;;;;;5137818;27;20031;-77
2021/03/09 04:45:14;;;;;;;13.52;6.82;;;;;;;;;;5137577;27;20091;-77
2021/03/09 04:47:40;;;;;;;12.10;6.75;;;;;;;;;;5134887;27;20481;-76
2021/03/09 04:50:08;;;;;;;11.90;7.03;;;;;;;;;;5117090;28;20052;-77
2021/03/09 04:52:34;;;;;;;12.00;6.05;;;;;;;;;;5117284;28;20078;-77
2021/03/09 04:55:00;;;;;;;10.68;6.22;;;;;;;;;;5099068;28;20066;-76
2021/03/09 04:57:37;;;;;;;12.63;7.30;;;;;;;;;;5116979;28;20047;-77
2021/03/09 05:00:08;;;;;;;13.93;7.38;;;;;;;;;;5116932;28;20028;-77
2021/03/09 05:02:34;;;;;;;13.82;6.70;;;;;;;;;;5116952;28;20126;-76
2021/03/09 05:04:59;;;;;;;11.80;6.88;;;;;;;;;;5116908;28;20124;-76
2021/03/09 05:07:25;;;;;;;12.35;6.70;;;;;;;;;;5117159;28;20374;-77
2021/03/09 05:09:50;;;;;;;13.52;6.80;;;;;;;;;;5116721;28;20466;-77
2021/03/09 05:12:16;;;;;;;12.25;6.80;;;;;;;;;;5116988;28;20119;-76
2021/03/09 05:14:41;;;;;;;12.13;6.32;;;;;;;;;;5098496;28;20038;-76
2021/03/09 05:17:07;;;;;;;14.43;7.30;;;;;;;;;;5116437;28;20085;-76
2021/03/09 05:19:32;;;;;;;14.65;7.28;;;;;;;;;;5134416;27;20031;-77
2021/03/09 05:21:57;;;;;;;12.35;6.28;;;;;;;;;;5133528;27;20045;-77
2021/03/09 05:24:23;;;;;;;12.75;6.35;;;;;;;;;;5116318;28;20074;-77
2021/03/09 05:26:48;;;;;;;9.90;5.45;;;;;;;;;;5116357;28;20069;-76
2021/03/09 05:29:13;;;;;;;14.40;6.63;;;;;;;;;;5116694;28;20067;-76
2021/03/09 05:31:39;;;;;;;9.60;5.60;;;;;;;;;;5116349;28;20031;-77
2021/03/09 05:34:04;;;;;;;13.23;7.03;;;;;;;;;;5116514;28;20080;-76
2021/03/09 05:36:32;;;;;;;18.90;7.93;;;;;;;;;;5116321;28;20038;-76
2021/03/09 05:38:58;;;;;;;12.73;6.55;;;;;;;;;;5116021;28;20134;-76
2021/03/09 05:41:24;;;;;;;14.88;7.65;;;;;;;;;;5107706;27;20450;-76
2021/03/09 05:43:51;;;;;;;16.75;7.43;;;;;;;;;;5118440;27;20031;-77
2021/03/09 05:46:17;;;;;;;15.13;6.82;;;;;;;;;;5136428;27;20058;-77
2021/03/09 05:48:42;;;;;;;10.73;6.43;;;;;;;;;;5099067;28;20039;-77
2021/03/09 05:51:08;;;;;;;11.90;6.63;;;;;;;;;;5115171;28;20035;-77
2021/03/09 05:53:33;;;;;;;17.60;9.20;;;;;;;;;;5097538;28;20031;-77
2021/03/09 05:55:59;;;;;;;15.70;7.10;;;;;;;;;;5105122;27;20102;-77
2021/03/09 05:58:29;;;;;;;12.88;7.60;;;;;;;;;;5134686;27;20492;-77
2021/03/09 06:00:55;;;;;;;12.68;6.43;;;;;;;;;;5117751;27;20031;-77
2021/03/09 06:03:20;;;;;;;17.10;8.02;;;;;;;;;;5136212;27;20042;-77
2021/03/09 06:05:46;;;;;;;15.25;8.23;;;;;;;;;;5136458;27;20035;-77
2021/03/09 06:08:11;;;;;;;17.98;8.35;;;;;;;;;;5136414;27;20045;-77
2021/03/09 06:10:36;;;;;;;15.65;6.95;;;;;;;;;;5136214;27;20065;-77
2021/03/09 06:13:02;;;;;;;13.52;7.45;;;;;;;;;;5117919;27;20480;-76
2021/03/09 06:15:28;;;;;;;13.07;6.80;;;;;;;;;;5136245;27;20035;-77
2021/03/09 06:17:56;;;;;;;15.77;7.10;;;;;;;;;;5127947;27;20035;-76
2021/03/09 06:20:27;;;;;;;17.20;7.60;;;;;;;;;;5097106;28;20036;-76
2021/03/09 06:23:00;;;;;;;14.55;6.78;;;;;;;;;;5115198;28;20070;-77
2021/03/09 06:25:32;;;;;;;13.95;7.38;;;;;;;;;;5115273;28;20039;-77
2021/03/09 06:28:04;;;;;;;14.65;7.50;;;;;;;;;;5115315;28;20046;-76
2021/03/09 06:30:36;;;;;;;12.60;7.80;;;;;;;;;;5097255;28;20119;-76
2021/03/09 06:33:03;;;;;;;14.68;7.57;;;;;;;;;;5115048;28;20046;-76
2021/03/09 06:35:39;;;;;;;14.20;7.50;;;;;;;;;;5115014;28;20408;-76
2021/03/09 06:38:14;;;;;;;12.02;6.82;;;;;;;;;;5128798;27;20106;-76
2021/03/09 06:40:40;;;;;;;13.88;7.47;;;;;;;;;;5135475;27;20030;-76
2021/03/09 06:43:17;;;;;;;13.00;6.55;;;;;;;;;;5135249;27;20087;-76
2021/03/09 06:45:42;;;;;;;17.15;7.97;;;;;;;;;;5135227;27;20493;-76
2021/03/09 06:48:21;;;;;;;13.02;7.90;;;;;;;;;;5135212;27;20023;-76
2021/03/09 06:50:47;;;;;;;13.43;7.50;;;;;;;;;;5116946;27;20115;-76
2021/03/09 06:53:13;;;;;;;12.88;7.07;;;;;;;;;;5114706;28;20126;-77
2021/03/09 06:55:38;;;;;;;16.38;8.50;;;;;;;;;;5096653;28;20039;-76
2021/03/09 06:58:11;;;;;;;14.55;8.32;;;;;;;;;;5096510;28;20042;-76
2021/03/09 07:00:36;;;;;;;17.65;8.35;;;;;;;;;;5114507;28;20024;-76
2021/03/09 07:03:02;;;;;;;16.30;8.43;;;;;;;;;;5114363;28;20481;-76
2021/03/09 07:05:28;;;;;;;19.90;9.45;;;;;;;;;;5116978;27;20034;-77
2021/03/09 07:07:53;;;;;;;17.30;8.68;;;;;;;;;;5116703;27;20397;-76
2021/03/09 07:10:20;;;;;;;18.13;10.32;;;;;;;;;;5134766;27;20496;-76
2021/03/09 07:12:47;;;;;;;14.82;9.15;;;;;;;;;;5135076;27;20039;-76
2021/03/09 07:15:15;;;;;;;17.80;9.10;;;;;;;;;;5134706;27;20219;-76
2021/03/09 07:17:40;;;;;;;18.48;10.00;;;;;;;;;;5134661;27;20035;-78
2021/03/09 07:20:09;;;;;;;25.67;10.27;;;;;;;;;;5117692;27;20062;-79
2021/03/09 07:22:36;;;;;;;19.65;9.93;;;;;;;;;;5135864;27;20377;-78
2021/03/09 07:25:14;;;;;;;20.10;9.48;;;;;;;;;;5136597;27;20035;-78
2021/03/09 07:27:57;;;;;;;23.73;10.93;;;;;;;;;;5137722;27;20091;-77
2021/03/09 07:30:24;;;;;;;21.25;10.02;;;;;;;;;;5134926;27;20105;-77
2021/03/09 07:32:53;;;;;;;18.48;10.43;;;;;;;;;;5135251;27;20027;-76
2021/03/09 07:35:20;;;;;;;18.30;9.73;;;;;;;;;;5134763;27;20096;-76
2021/03/09 07:37:46;;;;;;;19.30;10.68;;;;;;;;;;5134849;27;20076;-76
2021/03/09 07:40:15;;;;;;;19.10;11.13;;;;;;;;;;5116940;27;20039;-76
2021/03/09 07:42:41;;;;;;;21.50;11.25;;;;;;;;;;5134722;27;20124;-76
2021/03/09 07:45:11;;;;;;;18.77;10.20;;;;;;;;;;5134804;27;20133;-77
2021/03/09 07:47:52;;;;;;;18.83;10.88;;;;;;;;;;5134874;27;20039;-77
2021/03/09 07:50:20;;;;;;;18.08;10.63;;;;;;;;;;5116225;27;20034;-77
2021/03/09 07:53:10;;;;;;;22.40;10.43;;;;;;;;;;5134663;27;20503;-77
2021/03/09 07:55:46;;;;;;;22.33;11.50;;;;;;;;;;5116416;27;20050;-80
2021/03/09 07:58:13;;;;;;;19.30;11.40;;;;;;;;;;5116459;28;20504;-78
2021/03/09 08:01:04;;;;;;;22.05;11.82;;;;;;;;;;5115131;28;20046;-76
2021/03/09 08:03:40;;;;;;;21.05;11.23;;;;;;;;;;5134261;27;20050;-77
2021/03/09 08:06:07;;;;;;;21.15;12.02;;;;;;;;;;5134283;28;20092;-76
2021/03/09 08:08:55;;;;;;;22.42;10.95;;;;;;;;;;5134388;28;20042;-76
2021/03/09 08:11:20;;;;;;;25.60;12.50;;;;;;;;;;5134124;28;20027;-76
2021/03/09 08:13:47;;;;;;;23.73;13.90;;;;;;;;;;5133933;28;20043;-76
2021/03/09 08:16:21;;;;;;;26.35;13.35;;;;;;;;;;5134089;28;20027;-77
2021/03/09 08:18:48;;;;;;;26.50;16.60;;;;;;;;;;5103070;28;20047;-76
2021/03/09 08:21:15;;;;;;;27.55;14.75;;;;;;;;;;5113376;28;20039;-76
2021/03/09 08:23:40;;;;;;;27.08;15.65;;;;;;;;;;5095295;28;20039;-76
2021/03/09 08:26:08;;;;;;;24.13;13.50;;;;;;;;;;5094219;28;20462;-77
2021/03/09 08:28:41;;;;;;;26.13;13.10;;;;;;;;;;5095060;28;20032;-74
2021/03/09 08:31:12;;;;;;;23.63;12.95;;;;;;;;;;5113324;28;20027;-76
2021/03/09 08:34:06;;;;;;;21.60;11.65;;;;;;;;;;5113402;28;20126;-77
2021/03/09 08:36:34;;;;;;;21.80;11.95;;;;;;;;;;5112983;28;20049;-76
2021/03/09 08:39:08;;;;;;;22.75;12.70;;;;;;;;;;5118753;28;20035;-75
2021/03/09 08:41:36;;;;;;;26.98;13.63;;;;;;;;;;5133668;28;20035;-75
2021/03/09 08:44:19;;;;;;;24.13;14.18;;;;;;;;;;5115452;27;20046;-77
2021/03/09 08:47:06;;;;;;;23.08;12.73;;;;;;;;;;5115162;28;20046;-75
2021/03/09 08:49:34;;;;;;;21.55;12.15;;;;;;;;;;5097570;28;20031;-75
2021/03/09 08:52:20;;;;;;;22.50;12.88;;;;;;;;;;5133427;28;20031;-76
2021/03/09 08:54:48;;;;;;;23.67;12.52;;;;;;;;;;5118884;27;20047;-75
2021/03/09 08:57:19;;;;;;;26.50;14.82;;;;;;;;;;5133721;28;20034;-75
2021/03/09 08:59:46;;;;;;;22.50;13.65;;;;;;;;;;5115189;28;20357;-77
2021/03/09 09:02:23;;;;;;;22.02;12.98;;;;;;;;;;5115411;28;20055;-76
2021/03/09 09:04:52;;;;;;;25.17;14.00;;;;;;;;;;5133525;27;20469;-77
2021/03/09 09:07:25;;;;;;;29.65;16.30;;;;;;;;;;5133713;28;20130;-78
2021/03/09 09:09:53;;;;;;;28.45;13.98;;;;;;;;;;5135111;28;20034;-77
2021/03/09 09:12:20;;;;;;;23.13;13.40;;;;;;;;;;5137073;28;20403;-78
2021/03/09 09:14:46;;;;;;;18.52;12.40;;;;;;;;;;5121187;27;20023;-79
2021/03/09 09:17:12;;;;;;;28.30;14.15;;;;;;;;;;5140937;27;20070;-79
2021/03/09 09:19:37;;;;;;;27.05;14.93;;;;;;;;;;5123496;27;20385;-79
2021/03/09 09:22:02;;;;;;;28.50;14.90;;;;;;;;;;5122504;27;20172;-78
2021/03/09 09:24:28;;;;;;;24.88;14.32;;;;;;;;;;5137866;27;20084;-77
2021/03/09 09:26:58;;;;;;;23.33;14.15;;;;;;;;;;5139002;27;20049;-77
2021/03/09 09:29:24;;;;;;;21.40;13.68;;;;;;;;;;5138772;27;20054;-79
2021/03/09 09:32:00;;;;;;;24.20;14.60;;;;;;;;;;5140613;27;20495;-79
2021/03/09 09:34:35;;;;;;;21.52;13.18;;;;;;;;;;5140193;27;20031;-79
2021/03/09 09:37:12;;;;;;;24.17;14.73;;;;;;;;;;5128418;27;20859;-78
2021/03/09 09:39:37;;;;;;;;;;;;;;;;;;5102949;27;20492;-79
2021/03/09 09:42:03;;;;;;;30.50;15.37;;;;;;;;;;5119551;27;19958;-79
2021/03/09 09:44:28;;;;;;;23.98;13.18;;;;;;;;;;5118989;28;20095;-79
2021/03/09 09:46:54;;;;;;;26.00;13.95;;;;;;;;;;5119147;28;20035;-79
2021/03/09 09:49:20;;;;;;;25.23;14.40;;;;;;;;;;5118689;28;20042;-79
2021/03/09 09:51:46;;;;;;;26.80;14.77;;;;;;;;;;5118506;28;20023;-80
2021/03/09 09:54:12;;;;;;;24.55;14.57;;;;;;;;;;5138866;27;20114;-79
2021/03/09 09:56:37;;;;;;;26.95;15.20;;;;;;;;;;5138494;27;20584;-79
2021/03/09 09:59:03;;;;;;;28.50;14.85;;;;;;;;;;5120473;27;20537;-79
2021/03/09 10:01:31;;;;;;;26.45;15.27;;;;;;;;;;5138741;27;20035;-80
2021/03/09 10:04:02;;;;;;;27.90;15.57;;;;;;;;;;5138622;27;20054;-79
2021/03/09 10:06:30;;;;;;;24.73;15.57;;;;;;;;;;5139462;27;20060;-79
2021/03/09 10:09:08;;;;;;;26.67;15.57;;;;;;;;;;5120995;27;20035;-79
2021/03/09 10:11:46;;;;;;;26.00;14.88;;;;;;;;;;5140256;27;20034;-79
2021/03/09 10:14:12;;;;;;;24.98;14.90;;;;;;;;;;5139052;27;20358;-79
2021/03/09 10:16:38;;;;;;;23.85;13.90;;;;;;;;;;5140790;27;20164;-79
2021/03/09 10:19:05;;;;;;;25.25;14.98;;;;;;;;;;5138449;27;20049;-77
2021/03/09 10:21:36;;;;;;;29.85;14.82;;;;;;;;;;5139982;27;20035;-78
2021/03/09 10:24:02;;;;;;;31.17;17.17;;;;;;;;;;5102289;27;20079;-77
2021/03/09 10:26:42;;;;;;;26.58;15.82;;;;;;;;;;5138792;27;20058;-76
2021/03/09 10:29:13;;;;;;;24.63;15.13;;;;;;;;;;5100793;27;20047;-77
2021/03/09 10:31:44;;;;;;;29.45;16.38;;;;;;;;;;5136847;27;20119;-77
2021/03/09 10:34:11;;;;;;;27.50;16.10;;;;;;;;;;5140101;27;20027;-79
2021/03/09 10:36:49;;;;;;;29.42;17.25;;;;;;;;;;5144055;27;20384;-79
2021/03/09 10:39:16;;;;;;;43.70;22.65;;;;;;;;;;5142911;27;20031;-80
2021/03/09 10:41:41;;;;;;;32.63;18.73;;;;;;;;;;5142594;27;20039;-80
2021/03/09 10:44:06;;;;;;;25.58;15.48;;;;;;;;;;5142336;27;20057;-79
2021/03/09 10:46:34;;;;;;;26.92;14.38;;;;;;;;;;5141896;27;20522;-79
2021/03/09 10:49:00;;;;;;;25.77;14.73;;;;;;;;;;5142937;27;20171;-79
2021/03/09 10:51:26;;;;;;;23.63;14.48;;;;;;;;;;5142720;27;20035;-79
2021/03/09 10:53:51;;;;;;;23.20;14.13;;;;;;;;;;5121850;27;20034;-79
2021/03/09 10:56:17;;;;;;;26.88;15.63;;;;;;;;;;5120912;27;20042;-79
2021/03/09 10:58:42;;;;;;;23.08;15.07;;;;;;;;;;5141240;27;20065;-78
2021/03/09 11:01:08;;;;;;;26.60;15.32;;;;;;;;;;5140695;27;20487;-79
2021/03/09 11:03:33;;;;;;;25.58;14.82;;;;;;;;;;5141389;27;20109;-78
2021/03/09 11:05:59;;;;;;;25.55;15.20;;;;;;;;;;5140780;27;20026;-79
2021/03/09 11:08:24;;;;;;;23.83;15.05;;;;;;;;;;5139797;27;20057;-79
2021/03/09 11:10:51;;;;;;;26.98;16.55;;;;;;;;;;5140149;27;20528;-79
2021/03/09 11:13:17;;;;;;;23.30;15.25;;;;;;;;;;5140239;27;20043;-79
2021/03/09 11:15:43;;;;;;;26.52;15.63;;;;;;;;;;5138968;27;20031;-79
2021/03/09 11:18:08;;;;;;;28.60;15.88;;;;;;;;;;5135944;27;20031;-78
2021/03/09 11:20:34;;;;;;;26.92;16.52;;;;;;;;;;5138995;27;20038;-78
2021/03/09 11:22:59;;;;;;;23.73;15.00;;;;;;;;;;5137933;27;20026;-78
2021/03/09 11:25:26;;;;;;;30.90;16.88;;;;;;;;;;5119575;27;20059;-79
2021/03/09 11:27:53;;;;;;;26.50;15.70;;;;;;;;;;5135737;27;20488;-77
2021/03/09 11:30:19;;;;;;;27.42;16.55;;;;;;;;;;5117508;27;20398;-77
2021/03/09 11:32:44;;;;;;;29.80;17.13;;;;;;;;;;5134831;27;20408;-77
2021/03/09 11:35:11;;;;;;;27.23;15.55;;;;;;;;;;5134569;27;20043;-76
2021/03/09 11:37:36;;;;;;;25.58;15.93;;;;;;;;;;5134792;27;20039;-76
2021/03/09 11:40:04;;;;;;;26.23;16.77;;;;;;;;;;5120215;27;20042;-75
2021/03/09 11:42:29;;;;;;;25.17;15.82;;;;;;;;;;5114019;28;20484;-76
2021/03/09 11:44:54;;;;;;;26.33;16.90;;;;;;;;;;5092144;28;20044;-76
2021/03/09 11:47:21;;;;;;;28.42;17.02;;;;;;;;;;5093406;28;20040;-77
2021/03/09 11:49:46;;;;;;;29.65;17.65;;;;;;;;;;5105671;28;20039;-78
2021/03/09 11:52:12;;;;;;;23.98;15.30;;;;;;;;;;5104089;28;20058;-78
2021/03/09 11:54:38;;;;;;;25.77;16.05;;;;;;;;;;5098495;28;20121;-78
2021/03/09 11:57:04;;;;;;;25.33;15.80;;;;;;;;;;5098159;28;20032;-77
2021/03/09 11:59:29;;;;;;;25.60;16.00;;;;;;;;;;5096501;28;20031;-76
2021/03/09 12:01:54;;;;;;;32.60;17.83;;;;;;;;;;5091985;28;20035;-76
2021/03/09 12:04:20;;;;;;;29.67;16.60;;;;;;;;;;5093306;28;20032;-77
2021/03/09 12:06:45;;;;;;;28.65;17.13;;;;;;;;;;5093784;28;20043;-76
2021/03/09 12:09:11;;;;;;;28.77;16.27;;;;;;;;;;5093772;28;20089;-77
2021/03/09 12:11:36;;;;;;;30.27;17.30;;;;;;;;;;5093246;28;20039;-76
2021/03/09 12:14:01;;;;;;;25.73;16.75;;;;;;;;;;5093780;28;20051;-77
2021/03/09 12:16:28;;;;;;;27.08;18.20;;;;;;;;;;5112672;28;20119;-77
2021/03/09 12:18:53;;;;;;;32.50;19.45;;;;;;;;;;5103465;28;20043;-77
2021/03/09 12:21:19;;;;;;;29.30;18.40;;;;;;;;;;5102401;28;20035;-78
2021/03/09 12:23:44;;;;;;;28.95;17.73;;;;;;;;;;5103276;28;20136;-77
2021/03/09 12:26:10;;;;;;;31.42;18.27;;;;;;;;;;5092911;28;20100;-77
2021/03/09 12:28:35;;;;;;;29.55;18.02;;;;;;;;;;5093110;28;20111;-78
2021/03/09 12:31:02;;;;;;;30.50;18.17;;;;;;;;;;5093316;28;20036;-78
2021/03/09 12:33:27;;;;;;;29.55;17.55;;;;;;;;;;5092958;28;20089;-78
2021/03/09 12:35:53;;;;;;;25.92;16.85;;;;;;;;;;5091747;28;20381;-78
2021/03/09 12:38:18;;;;;;;28.33;18.02;;;;;;;;;;5093203;28;20042;-77
2021/03/09 12:40:44;;;;;;;25.35;16.42;;;;;;;;;;5091625;28;20071;-77
2021/03/09 12:43:09;;;;;;;29.17;18.00;;;;;;;;;;5092634;28;20119;-77
2021/03/09 12:45:34;;;;;;;29.15;18.20;;;;;;;;;;5104965;28;20511;-77
2021/03/09 12:48:00;;;;;;;35.70;24.45;;;;;;;;;;5113169;28;20405;-78
2021/03/09 12:50:25;;;;;;;31.67;18.65;;;;;;;;;;5113711;27;20069;-77
2021/03/09 12:52:51;;;;;;;31.23;20.52;;;;;;;;;;5137690;27;20034;-77
2021/03/09 12:55:16;;;;;;;28.42;17.98;;;;;;;;;;5137697;27;20042;-77
2021/03/09 12:57:42;;;;;;;29.77;17.77;;;;;;;;;;5119274;27;20035;-77
2021/03/09 13:00:09;;;;;;;26.95;17.15;;;;;;;;;;5137464;27;20047;-77
2021/03/09 13:02:35;;;;;;;29.38;18.10;;;;;;;;;;5137237;27;20031;-78
2021/03/09 13:05:01;;;;;;;26.80;17.15;;;;;;;;;;5137350;27;20042;-77
2021/03/09 13:07:26;;;;;;;29.95;17.90;;;;;;;;;;5137708;27;20035;-77
2021/03/09 13:09:51;;;;;;;30.38;18.35;;;;;;;;;;5137558;27;20046;-77
2021/03/09 13:12:17;;;;;;;27.25;17.05;;;;;;;;;;5137385;27;20043;-77
2021/03/09 13:14:42;;;;;;;28.70;18.38;;;;;;;;;;5137201;27;20057;-77
2021/03/09 13:17:08;;;;;;;28.58;17.52;;;;;;;;;;5137466;27;20042;-78
2021/03/09 13:19:33;;;;;;;26.83;17.65;;;;;;;;;;5137278;27;20027;-77
2021/03/09 13:21:59;;;;;;;30.58;18.52;;;;;;;;;;5136937;27;20051;-77
2021/03/09 13:24:24;;;;;;;28.65;18.67;;;;;;;;;;5118573;27;20046;-77
2021/03/09 13:26:50;;;;;;;29.17;18.63;;;;;;;;;;5136566;27;20746;-77
2021/03/09 13:29:16;;;;;;;29.95;18.70;;;;;;;;;;5118582;27;20031;-78
2021/03/09 13:31:41;;;;;;;31.00;19.20;;;;;;;;;;5136824;27;20031;-78
2021/03/09 13:34:06;;;;;;;31.95;19.10;;;;;;;;;;5136694;27;20121;-77
2021/03/09 13:36:32;;;;;;;30.88;18.95;;;;;;;;;;5137075;27;20053;-78
2021/03/09 13:38:57;;;;;;;32.00;19.75;;;;;;;;;;5136848;27;20031;-77
2021/03/09 13:41:23;;;;;;;30.02;19.13;;;;;;;;;;5136651;27;20495;-77
2021/03/09 13:43:48;;;;;;;29.83;19.77;;;;;;;;;;5136723;27;20034;-77
2021/03/09 13:46:14;;;;;;;31.27;20.20;;;;;;;;;;5136261;27;20055;-77
2021/03/09 13:48:40;;;;;;;34.33;21.00;;;;;;;;;;5136548;27;20027;-78
2021/03/09 13:51:07;;;;;;;37.22;22.63;;;;;;;;;;5118330;27;20027;-77
2021/03/09 13:53:33;;;;;;;32.22;20.40;;;;;;;;;;5136533;27;20099;-77
2021/03/09 13:55:58;;;;;;;31.48;19.67;;;;;;;;;;5135789;27;20039;-78
2021/03/09 13:58:24;;;;;;;33.97;20.98;;;;;;;;;;5136372;27;20463;-77
2021/03/09 14:00:49;;;;;;;30.92;19.95;;;;;;;;;;5118443;27;20058;-78
2021/03/09 14:03:15;;;;;;;32.40;19.70;;;;;;;;;;5135097;27;20031;-77
2021/03/09 14:05:40;;;;;;;31.67;20.58;;;;;;;;;;5117502;27;20051;-77
2021/03/09 14:08:06;;;;;;;30.85;20.10;;;;;;;;;;5136237;27;20039;-77
2021/03/09 14:10:31;;;;;;;31.73;20.13;;;;;;;;;;5136157;27;20099;-78
2021/03/09 14:12:56;;;;;;;30.95;20.15;;;;;;;;;;5136137;27;20035;-77
2021/03/09 14:15:21;;;;;;;30.55;20.02;;;;;;;;;;5117829;27;20102;-78
2021/03/09 14:17:47;;;;;;;35.83;22.75;;;;;;;;;;5117625;27;20047;-77
2021/03/09 14:20:14;;;;;;;35.58;22.27;;;;;;;;;;5136211;27;20480;-78
2021/03/09 14:22:42;;;;;;;36.10;21.42;;;;;;;;;;5135947;27;20054;-77
2021/03/09 14:25:09;;;;;;;31.30;19.63;;;;;;;;;;5117831;27;20404;-77
2021/03/09 14:27:35;;;;;;;30.35;19.48;;;;;;;;;;5117609;27;20031;-77
2021/03/09 14:30:03;;;;;;;33.58;21.58;;;;;;;;;;5136094;27;20039;-77